Time;durP1;ratioP1;P1;durP2;ratioP2;P2;SDS_P1;SDS_P2;PMS_P1;PMS_P2;Temp;Humidity;BMP_temperature;BMP_pressure;BME280_temperature;BME280_humidity;BME280_pressure;Samples;Min_cycle;Max_cycle;Signal;HPM_P1;HPM_P2
2023/08/10 00:02:20;;;;;;;4.03;2.10;;;;;;;13.33;86.17;101964.84;4989943;28;20630;-76
2023/08/10 00:04:48;;;;;;;4.97;2.00;;;;;;;13.38;86.22;101953.28;4972912;28;20418;-76
2023/08/10 00:07:15;;;;;;;7.22;1.95;;;;;;;13.41;86.11;101954.09;4971474;28;20133;-76
2023/08/10 00:09:42;;;;;;;3.70;1.80;;;;;;;13.44;86.29;101947.84;4989604;28;20577;-76
2023/08/10 00:12:09;;;;;;;6.63;2.60;;;;;;;13.48;86.40;101952.16;4956167;28;20128;-76
2023/08/10 00:14:36;;;;;;;5.28;2.20;;;;;;;13.52;86.29;101948.53;4989856;28;20190;-76
2023/08/10 00:17:04;;;;;;;7.18;2.40;;;;;;;13.56;86.63;101954.59;4989316;28;20053;-76
2023/08/10 00:19:31;;;;;;;4.18;2.28;;;;;;;13.60;86.78;101949.19;4953385;28;20039;-76
2023/08/10 00:21:58;;;;;;;4.88;2.47;;;;;;;13.65;86.75;101955.25;4970051;28;20126;-76
2023/08/10 00:24:25;;;;;;;5.47;2.25;;;;;;;13.70;86.89;101951.59;4969383;28;20042;-75
2023/08/10 00:26:52;;;;;;;4.75;2.25;;;;;;;13.74;86.73;101948.84;4970315;28;20070;-76
2023/08/10 00:29:19;;;;;;;3.85;2.35;;;;;;;13.77;86.87;101959.38;4970327;28;20125;-76
2023/08/10 00:31:46;;;;;;;5.80;2.28;;;;;;;13.80;86.79;101955.75;4960478;28;20050;-76
2023/08/10 00:34:14;;;;;;;6.03;2.50;;;;;;;13.83;86.62;101960.97;4988629;28;20093;-75
2023/08/10 00:36:41;;;;;;;7.13;2.45;;;;;;;13.85;86.71;101967.13;4988381;28;20049;-76
2023/08/10 00:39:08;;;;;;;4.90;2.60;;;;;;;13.87;86.46;101964.41;4970119;28;20066;-76
2023/08/10 00:41:36;;;;;;;5.55;2.58;;;;;;;13.89;86.59;101967.91;4989102;28;20137;-75
2023/08/10 00:44:03;;;;;;;4.65;2.72;;;;;;;13.89;86.16;101968.75;4988311;28;20046;-76
2023/08/10 00:46:31;;;;;;;7.72;3.45;;;;;;;13.91;85.87;101960.78;4989010;28;20053;-76
2023/08/10 00:48:59;;;;;;;7.50;2.63;;;;;;;13.90;nan;101973.16;4988204;28;20173;-76
2023/08/10 00:51:26;;;;;;;6.95;2.78;;;;;;;13.89;86.08;101965.25;4984817;28;20043;-76
2023/08/10 00:53:54;;;;;;;8.05;2.90;;;;;;;13.88;86.31;101969.69;4967459;28;20109;-76
2023/08/10 00:56:21;;;;;;;6.60;3.53;;;;;;;13.90;86.16;101964.34;4968302;28;20049;-76
2023/08/10 00:58:50;;;;;;;10.68;3.38;;;;;;;13.90;86.22;101959.91;4969320;28;20057;-76
2023/08/10 01:01:17;;;;;;;4.10;2.88;;;;;;;13.90;86.30;101962.56;4970508;28;20101;-76
2023/08/10 01:03:44;;;;;;;8.02;3.47;;;;;;;13.92;86.16;101965.19;4989076;28;20125;-76
2023/08/10 01:06:30;;;;;;;5.05;3.10;;;;;;;13.93;86.42;101954.53;4970536;28;20401;-76
2023/08/10 01:09:15;;;;;;;5.90;3.00;;;;;;;13.92;86.52;101952.78;4970169;28;20141;-76
2023/08/10 01:12:28;;;;;;;9.82;3.20;;;;;;;13.93;86.69;101970.44;4955647;28;20054;-76
2023/08/10 01:15:23;;;;;;;6.45;3.45;;;;;;;13.93;86.24;101965.13;4986188;28;20125;-76
2023/08/10 01:18:00;;;;;;;5.35;3.40;;;;;;;13.94;86.10;101961.56;4988147;28;20042;-76
2023/08/10 01:20:32;;;;;;;10.43;4.18;;;;;;;13.96;85.98;101965.06;4970431;28;20773;-76
2023/08/10 01:23:22;;;;;;;9.02;3.67;;;;;;;14.00;85.44;101972.91;4970759;28;20093;-75
2023/08/10 01:25:52;;;;;;;7.43;3.35;;;;;;;13.99;85.50;101969.41;4987937;28;20049;-76
2023/08/10 01:28:19;;;;;;;7.43;3.80;;;;;;;14.01;85.79;101972.00;4988668;28;20050;-75
2023/08/10 01:30:47;;;;;;;5.78;3.42;;;;;;;14.04;86.04;101969.28;4988350;28;20050;-75
2023/08/10 01:33:15;;;;;;;7.22;3.65;;;;;;;14.05;86.33;101971.88;4971397;28;20045;-76
2023/08/10 01:35:43;;;;;;;5.18;3.60;;;;;;;14.08;86.19;101963.84;4991026;28;20382;-76
2023/08/10 01:38:10;;;;;;;5.50;3.45;;;;;;;14.09;86.47;101970.03;4970554;28;20495;-76
2023/08/10 01:40:38;;;;;;;7.53;3.13;;;;;;;14.08;86.64;101981.56;4937989;28;20059;-76
2023/08/10 01:43:05;;;;;;;6.32;3.08;;;;;;;14.07;86.96;101979.81;4971509;28;20043;-76
2023/08/10 01:45:32;;;;;;;6.28;3.17;;;;;;;14.05;87.14;101982.47;4987422;28;20529;-76
2023/08/10 01:48:20;;;;;;;7.03;3.22;;;;;;;14.04;87.27;101977.22;4987173;28;20366;-76
2023/08/10 01:50:52;;;;;;;9.73;3.17;;;;;;;13.96;87.44;101978.31;4986726;28;20046;-76
2023/08/10 01:53:29;;;;;;;6.68;3.00;;;;;;;13.95;87.68;101976.56;4969564;28;20625;-75
2023/08/10 01:55:58;;;;;;;6.65;2.78;;;;;;;13.93;88.00;101981.03;4967899;28;20053;-76
2023/08/10 01:58:25;;;;;;;4.97;2.78;;;;;;;13.90;88.21;101980.25;4951848;28;20065;-76
2023/08/10 02:00:52;;;;;;;5.95;2.72;;;;;;;13.88;88.43;101985.59;4978541;28;20049;-75
2023/08/10 02:03:19;;;;;;;6.55;2.90;;;;;;;13.86;88.39;101981.22;4951634;28;20043;-76
2023/08/10 02:05:47;;;;;;;4.80;2.55;;;;;;;13.85;88.61;101975.06;4957734;28;20043;-76
2023/08/10 02:08:14;;;;;;;7.15;2.65;;;;;;;13.84;88.62;101986.59;4988050;28;20137;-75
2023/08/10 02:10:41;;;;;;;7.20;3.00;;;;;;;13.84;88.97;101989.22;4970222;28;20050;-76
2023/08/10 02:13:09;;;;;;;5.22;3.10;;;;;;;13.85;88.88;101990.97;4970845;28;20050;-76
2023/08/10 02:15:36;;;;;;;5.68;3.00;;;;;;;13.86;88.95;101989.19;4970680;28;20133;-76
2023/08/10 02:18:04;;;;;;;6.03;2.92;;;;;;;13.86;89.44;101979.47;4963884;28;20684;-76
2023/08/10 02:20:32;;;;;;;5.50;3.33;;;;;;;13.86;89.49;101986.53;4953054;28;20042;-76
2023/08/10 02:22:59;;;;;;;8.02;3.50;;;;;;;13.83;89.38;101982.19;4986249;28;20046;-76
2023/08/10 02:25:26;;;;;;;5.18;3.30;;;;;;;13.84;89.74;101975.97;4953936;28;20054;-75
2023/08/10 02:27:53;;;;;;;8.48;3.25;;;;;;;13.83;89.76;101974.22;4970715;28;20046;-76
2023/08/10 02:30:20;;;;;;;5.00;2.97;;;;;;;13.85;89.86;101979.50;4973180;28;20049;-76
2023/08/10 02:32:48;;;;;;;7.20;3.28;;;;;;;13.84;89.67;101968.03;4991088;28;20046;-75
2023/08/10 02:35:15;;;;;;;4.60;3.15;;;;;;;13.84;89.59;101964.53;4973948;28;20058;-76
2023/08/10 02:37:43;;;;;;;7.88;3.45;;;;;;;13.82;89.98;101969.84;4990580;28;20108;-76
2023/08/10 02:40:11;;;;;;;6.75;3.33;;;;;;;13.81;90.10;101973.41;4973217;28;20050;-76
2023/08/10 02:42:40;;;;;;;6.72;3.20;;;;;;;13.77;90.14;101974.41;4991211;28;20088;-76
2023/08/10 02:45:09;;;;;;;8.00;3.30;;;;;;;13.73;90.36;101973.63;4973565;28;20089;-76
2023/08/10 02:47:36;;;;;;;5.57;3.63;;;;;;;13.72;90.38;101976.28;4990312;28;20074;-76
2023/08/10 02:50:09;;;;;;;6.53;2.95;;;;;;;13.68;90.33;101974.66;4986266;28;20055;-76
2023/08/10 02:52:36;;;;;;;7.90;3.13;;;;;;;13.64;90.29;101981.78;4954172;28;20074;-76
2023/08/10 02:55:04;;;;;;;6.22;3.20;;;;;;;13.60;90.34;101973.03;4964001;28;20101;-76
2023/08/10 02:57:32;;;;;;;5.25;3.10;;;;;;;13.59;90.32;101984.53;4973044;28;20046;-76
2023/08/10 02:59:59;;;;;;;6.70;3.17;;;;;;;13.54;90.71;101988.22;4977138;28;20042;-76
2023/08/10 03:02:28;;;;;;;6.45;3.25;;;;;;;13.53;91.00;101989.16;4973935;28;20424;-76
2023/08/10 03:04:58;;;;;;;8.15;3.45;;;;;;;13.52;91.09;101988.25;4973255;28;20042;-75
2023/08/10 03:07:26;;;;;;;7.00;3.67;;;;;;;13.53;91.49;101986.50;4973506;28;20058;-76
2023/08/10 03:09:55;;;;;;;6.50;3.13;;;;;;;13.52;91.89;101988.25;4972460;28;20054;-76
2023/08/10 03:12:24;;;;;;;7.25;4.00;;;;;;;13.52;92.14;101985.59;4974265;28;20054;-76
2023/08/10 03:14:51;;;;;;;8.20;3.35;;;;;;;13.47;92.03;101979.56;4990366;28;20560;-76
2023/08/10 03:17:19;;;;;;;8.93;3.72;;;;;;;13.47;92.32;101974.28;4956004;28;20133;-75
2023/08/10 03:19:48;;;;;;;7.78;3.60;;;;;;;13.46;92.34;101983.97;4989078;28;20093;-76
2023/08/10 03:22:16;;;;;;;6.15;3.40;;;;;;;13.46;92.47;101989.28;4989375;28;20057;-76
2023/08/10 03:24:43;;;;;;;7.68;3.65;;;;;;;13.43;92.56;101986.69;4971389;28;20043;-76
2023/08/10 03:27:10;;;;;;;7.10;4.03;;;;;;;13.41;92.37;101985.88;4988500;28;20434;-75
2023/08/10 03:29:37;;;;;;;8.07;3.72;;;;;;;13.41;92.30;101990.28;4978414;28;20039;-76
2023/08/10 03:32:04;;;;;;;6.72;3.60;;;;;;;13.42;92.96;101997.34;4989536;28;20043;-76
2023/08/10 03:34:32;;;;;;;5.75;4.03;;;;;;;13.43;93.16;101997.28;4968439;28;20057;-76
2023/08/10 03:36:59;;;;;;;8.25;3.65;;;;;;;13.46;93.35;101997.22;4973232;28;20061;-76
2023/08/10 03:39:27;;;;;;;5.90;3.78;;;;;;;13.50;93.59;101984.75;4971806;28;20827;-76
2023/08/10 03:41:54;;;;;;;6.63;3.85;;;;;;;13.55;93.89;101984.66;4989014;28;20046;-76
2023/08/10 03:44:21;;;;;;;7.40;4.10;;;;;;;13.55;94.02;101988.19;4988467;28;20046;-76
2023/08/10 03:46:48;;;;;;;5.05;3.80;;;;;;;13.55;94.02;101988.19;4984502;28;20120;-76
2023/08/10 03:49:16;;;;;;;7.70;4.07;;;;;;;13.59;93.94;101995.13;4988987;28;20419;-75
2023/08/10 03:51:43;;;;;;;5.75;3.63;;;;;;;13.62;94.02;101997.72;4972700;28;20049;-76
2023/08/10 03:54:10;;;;;;;8.90;4.20;;;;;;;13.65;94.19;101999.41;4988851;28;20065;-75
2023/08/10 03:56:38;;;;;;;7.70;3.80;;;;;;;13.68;94.09;102004.66;4989621;28;20053;-76
2023/08/10 03:59:05;;;;;;;8.90;4.82;;;;;;;13.70;93.94;102005.50;4990038;28;20050;-76
2023/08/10 04:01:32;;;;;;;8.10;4.35;;;;;;;13.71;94.08;102004.59;4970616;28;20125;-76
2023/08/10 04:03:59;;;;;;;5.97;4.20;;;;;;;13.72;93.98;102010.75;4989175;28;20042;-76
2023/08/10 04:06:27;;;;;;;7.00;4.00;;;;;;;13.71;94.01;102007.22;4962830;28;20680;-76
2023/08/10 04:08:54;;;;;;;9.65;4.15;;;;;;;13.67;93.60;102013.50;4970282;28;20233;-76
2023/08/10 04:11:21;;;;;;;8.75;3.92;;;;;;;13.64;93.68;102013.56;4952013;28;20649;-76
2023/08/10 04:13:48;;;;;;;6.60;4.18;;;;;;;13.60;93.66;102011.91;4982405;28;20038;-76
2023/08/10 04:16:16;;;;;;;8.00;4.07;;;;;;;13.56;93.84;102013.78;4989403;28;20050;-76
2023/08/10 04:18:43;;;;;;;7.22;4.20;;;;;;;13.53;93.85;102019.13;4972478;28;20053;-77
2023/08/10 04:21:11;;;;;;;5.93;3.97;;;;;;;13.51;93.74;102013.00;4972009;28;20046;-74
2023/08/10 04:23:40;;;;;;;9.10;4.30;;;;;;;13.49;93.75;102017.47;4971479;28;20100;-74
2023/08/10 04:26:09;;;;;;;8.57;4.45;;;;;;;13.48;94.00;102026.34;4971139;28;20422;-74
2023/08/10 04:28:36;;;;;;;8.25;4.20;;;;;;;13.45;94.10;102011.38;4988476;28;20126;-76
2023/08/10 04:31:03;;;;;;;6.80;4.18;;;;;;;13.45;94.09;102015.81;4989439;28;20517;-74
2023/08/10 04:33:31;;;;;;;9.38;4.20;;;;;;;13.45;94.21;102018.47;4987155;28;20117;-74
2023/08/10 04:35:58;;;;;;;6.20;4.28;;;;;;;13.43;94.22;102020.25;4988995;28;20042;-74
2023/08/10 04:38:26;;;;;;;5.82;4.20;;;;;;;13.41;94.18;102016.78;4989553;28;20053;-74
2023/08/10 04:40:53;;;;;;;7.85;5.07;;;;;;;13.42;94.10;102032.66;4986473;28;20058;-74
2023/08/10 04:43:20;;;;;;;6.22;4.05;;;;;;;13.44;93.86;102025.50;4987203;28;20045;-74
2023/08/10 04:45:47;;;;;;;8.60;5.03;;;;;;;13.45;93.95;102031.69;4987295;28;20034;-74
2023/08/10 04:48:15;;;;;;;11.80;5.63;;;;;;;13.49;93.81;102026.28;4972386;28;20050;-74
2023/08/10 04:50:42;;;;;;;7.95;5.03;;;;;;;13.56;93.44;102024.38;4971530;28;20046;-74
2023/08/10 04:53:09;;;;;;;8.40;4.32;;;;;;;13.57;93.57;102023.47;4971180;28;20097;-74
2023/08/10 04:55:36;;;;;;;14.10;5.00;;;;;;;13.57;93.63;102022.59;4987282;28;20121;-77
2023/08/10 04:58:03;;;;;;;10.60;4.78;;;;;;;13.60;93.66;102027.81;4988774;28;20046;-74
2023/08/10 05:00:31;;;;;;;11.35;5.00;;;;;;;13.66;93.64;102036.50;4970036;28;20042;-74
2023/08/10 05:02:58;;;;;;;11.80;5.35;;;;;;;13.77;93.37;102030.91;4988564;28;20065;-74
2023/08/10 05:05:25;;;;;;;7.25;5.00;;;;;;;13.88;92.90;102033.31;4987015;28;20073;-75
2023/08/10 05:07:52;;;;;;;9.32;5.50;;;;;;;13.96;92.84;102022.50;4971338;28;20047;-75
2023/08/10 05:10:20;;;;;;;7.95;5.07;;;;;;;14.02;92.83;102022.34;4970321;28;20086;-75
2023/08/10 05:12:48;;;;;;;9.25;4.95;;;;;;;14.01;92.83;102019.72;4987509;28;20414;-75
2023/08/10 05:15:15;;;;;;;8.55;4.22;;;;;;;13.96;92.89;102020.72;4970413;28;20042;-75
2023/08/10 05:17:42;;;;;;;7.28;4.43;;;;;;;13.97;92.63;102025.13;4988967;28;20058;-75
2023/08/10 05:20:12;;;;;;;7.18;5.07;;;;;;;14.02;92.35;102018.81;4969915;28;20050;-75
2023/08/10 05:22:42;;;;;;;10.73;5.20;;;;;;;14.01;92.14;102020.63;4970617;28;20034;-75
2023/08/10 05:25:11;;;;;;;11.05;5.30;;;;;;;14.01;92.47;102022.38;4970408;28;20523;-75
2023/08/10 05:27:42;;;;;;;7.80;4.80;;;;;;;14.02;92.71;102026.78;4988588;28;20046;-74
2023/08/10 05:30:11;;;;;;;14.75;5.38;;;;;;;14.04;92.67;102020.50;4988394;28;20066;-75
2023/08/10 05:32:43;;;;;;;10.57;4.82;;;;;;;14.04;93.04;102022.31;4970200;28;20490;-75
2023/08/10 05:35:12;;;;;;;8.75;4.85;;;;;;;14.04;93.12;102025.81;4986720;28;20034;-75
2023/08/10 05:37:40;;;;;;;6.13;5.20;;;;;;;14.08;93.64;102026.63;4970803;28;20104;-75
2023/08/10 05:40:09;;;;;;;7.28;5.20;;;;;;;14.13;93.47;102027.38;4988519;28;20421;-75
2023/08/10 05:42:39;;;;;;;9.35;5.32;;;;;;;14.19;93.37;102027.22;4987781;28;20445;-75
2023/08/10 05:45:08;;;;;;;8.45;4.75;;;;;;;14.27;93.34;102022.56;4988445;28;20564;-75
2023/08/10 05:47:36;;;;;;;7.43;5.18;;;;;;;14.40;93.08;102032.81;4988527;28;20042;-75
2023/08/10 05:50:04;;;;;;;10.00;5.75;;;;;;;14.51;92.72;102025.44;4986900;28;20053;-75
2023/08/10 05:52:31;;;;;;;8.65;5.40;;;;;;;14.68;92.33;102032.97;4969419;28;20086;-75
2023/08/10 05:54:58;;;;;;;6.60;4.80;;;;;;;14.87;91.67;102033.31;4970418;28;20740;-75
2023/08/10 05:57:25;;;;;;;7.97;5.50;;;;;;;15.24;90.65;102027.78;4987599;28;20050;-75
2023/08/10 05:59:53;;;;;;;8.77;5.28;;;;;;;15.74;88.70;102027.09;4969923;28;20076;-76
2023/08/10 06:02:21;;;;;;;8.20;5.45;;;;;;;15.66;88.29;102027.34;4988070;28;20046;-77
2023/08/10 06:04:49;;;;;;;10.38;5.82;;;;;;;15.57;88.75;102031.16;4972715;28;20069;-77
2023/08/10 06:07:16;;;;;;;10.50;5.93;;;;;;;15.47;89.07;102027.94;4974189;28;20469;-77
2023/08/10 06:09:43;;;;;;;8.63;5.82;;;;;;;15.43;88.93;102028.94;4992263;28;20084;-76
2023/08/10 06:12:10;;;;;;;10.77;6.70;;;;;;;15.41;89.09;102030.81;4991372;28;20133;-76
2023/08/10 06:14:38;;;;;;;12.93;6.57;;;;;;;15.41;89.39;102030.81;4991388;28;20038;-76
2023/08/10 06:17:05;;;;;;;9.38;6.25;;;;;;;15.44;89.23;102032.50;4974195;28;20068;-76
2023/08/10 06:19:32;;;;;;;9.73;6.03;;;;;;;15.48;88.95;102031.47;4991855;28;20046;-77
2023/08/10 06:21:59;;;;;;;13.20;7.05;;;;;;;15.55;89.10;102035.69;4991671;28;20069;-77
2023/08/10 06:24:26;;;;;;;9.77;6.90;;;;;;;15.61;89.21;102038.13;4974391;28;20411;-76
2023/08/10 06:26:53;;;;;;;10.55;7.03;;;;;;;15.70;89.24;102036.97;4973658;28;20038;-76
2023/08/10 06:29:21;;;;;;;7.50;6.55;;;;;;;15.76;89.01;102035.91;4974198;28;20096;-77
2023/08/10 06:31:48;;;;;;;11.60;6.80;;;;;;;15.84;88.62;102040.06;4991646;28;20057;-77
2023/08/10 06:34:16;;;;;;;9.65;5.50;;;;;;;15.91;88.47;102042.53;4991567;28;20049;-77
2023/08/10 06:36:43;;;;;;;8.50;5.68;;;;;;;15.99;88.07;102037.81;4991570;28;20046;-77
2023/08/10 06:39:10;;;;;;;10.65;4.75;;;;;;;16.08;87.54;102037.50;4991397;28;20111;-77
2023/08/10 06:41:37;;;;;;;7.68;4.63;;;;;;;16.17;86.50;102032.78;4991310;28;20498;-76
2023/08/10 06:44:06;;;;;;;10.32;4.22;;;;;;;16.26;86.19;102035.09;4989540;28;20414;-77
2023/08/10 06:46:33;;;;;;;10.13;4.93;;;;;;;16.34;85.44;102043.69;4983238;28;20139;-74
2023/08/10 06:49:00;;;;;;;7.72;4.20;;;;;;;16.44;85.22;102036.25;4989848;28;20050;-76
2023/08/10 06:51:27;;;;;;;8.23;3.40;;;;;;;16.53;84.74;102035.91;4990851;28;20094;-76
2023/08/10 06:53:54;;;;;;;8.25;3.30;;;;;;;16.60;81.69;102028.56;4991064;28;20068;-76
2023/08/10 06:56:22;;;;;;;5.78;3.53;;;;;;;16.67;82.03;102030.06;4973375;28;20546;-77
2023/08/10 06:58:49;;;;;;;9.43;3.70;;;;;;;16.79;82.18;102034.06;4989980;28;20097;-77
2023/08/10 07:01:19;;;;;;;4.95;3.70;;;;;;;16.89;82.04;102031.94;4990165;28;20077;-77
2023/08/10 07:03:46;;;;;;;9.15;3.58;;;;;;;17.01;81.27;102028.84;4991327;28;20046;-77
2023/08/10 07:06:14;;;;;;;5.18;3.42;;;;;;;17.09;79.76;102031.22;4991109;28;20042;-77
2023/08/10 07:08:41;;;;;;;6.25;2.83;;;;;;;17.19;79.96;102035.25;4973691;28;20181;-77
2023/08/10 07:11:08;;;;;;;7.45;2.90;;;;;;;17.29;78.92;102034.88;4990522;28;20438;-74
2023/08/10 07:13:35;;;;;;;5.72;3.17;;;;;;;17.37;78.74;102033.63;4989930;28;20058;-77
2023/08/10 07:16:02;;;;;;;12.95;4.10;;;;;;;17.48;78.72;102035.88;4970027;28;20045;-74
2023/08/10 07:18:30;;;;;;;9.00;3.50;;;;;;;17.59;77.91;102029.25;4990269;28;20053;-75
2023/08/10 07:20:57;;;;;;;6.03;2.67;;;;;;;17.66;78.06;102022.72;4990832;28;20042;-77
2023/08/10 07:23:24;;;;;;;9.35;3.30;;;;;;;17.75;77.50;102021.47;4990862;28;20072;-75
2023/08/10 07:25:54;;;;;;;4.47;2.50;;;;;;;17.87;77.43;102030.75;4973120;28;20034;-75
2023/08/10 07:28:26;;;;;;;7.90;2.33;;;;;;;17.96;76.32;102020.56;4989932;28;20105;-75
2023/08/10 07:30:53;;;;;;;5.55;1.83;;;;;;;18.02;75.18;102030.13;4989491;28;20618;-75
2023/08/10 07:33:21;;;;;;;7.13;1.75;;;;;;;18.10;74.67;102028.00;4988054;28;20045;-75
2023/08/10 07:35:48;;;;;;;2.10;1.35;;;;;;;18.19;73.48;102023.19;4988706;28;20108;-75
2023/08/10 07:38:16;;;;;;;3.35;2.10;;;;;;;18.26;71.56;102033.53;4990370;28;20054;-75
2023/08/10 07:40:43;;;;;;;3.40;1.30;;;;;;;18.34;70.79;102037.69;4990410;28;20042;-75
2023/08/10 07:43:10;;;;;;;3.97;1.30;;;;;;;18.40;70.89;102040.06;4988608;28;20050;-75
2023/08/10 07:45:37;;;;;;;2.88;1.30;;;;;;;18.49;70.73;102036.97;4986909;28;20046;-75
2023/08/10 07:48:05;;;;;;;2.63;1.20;;;;;;;18.56;67.92;102029.56;4989328;28;20055;-75
2023/08/10 07:50:32;;;;;;;2.63;1.15;;;;;;;18.59;67.92;102027.63;4989151;28;20108;-75
2023/08/10 07:52:59;;;;;;;5.07;1.25;;;;;;;18.70;68.17;102034.28;4972898;28;20140;-75
2023/08/10 07:55:26;;;;;;;5.30;1.30;;;;;;;18.76;67.31;102034.00;4972682;28;20079;-76
2023/08/10 07:57:53;;;;;;;8.85;1.30;;;;;;;18.84;65.94;102028.28;4989291;28;20054;-76
2023/08/10 08:00:20;;;;;;;4.40;2.22;;;;;;;18.91;66.11;102032.44;4988570;28;20129;-75
2023/08/10 08:02:51;;;;;;;3.60;1.25;;;;;;;18.97;64.72;102029.50;4971794;28;20042;-75
2023/08/10 08:05:18;;;;;;;2.67;1.20;;;;;;;19.04;64.58;102035.41;4989840;28;20649;-75
2023/08/10 08:07:45;;;;;;;3.15;1.10;;;;;;;19.04;62.21;102032.75;4988431;28;20058;-75
2023/08/10 08:10:14;;;;;;;2.55;1.05;;;;;;;19.12;63.13;102033.25;4990307;28;20042;-75
2023/08/10 08:12:41;;;;;;;3.08;1.27;;;;;;;19.19;63.52;102034.66;4988458;28;20158;-75
2023/08/10 08:15:09;;;;;;;5.18;1.70;;;;;;;19.29;61.92;102031.56;4989397;28;20134;-75
2023/08/10 08:18:34;;;;;;;2.92;1.33;;;;;;;19.31;61.48;102035.03;4989482;28;20066;-76
2023/08/10 08:21:01;;;;;;;4.13;1.80;;;;;;;19.40;62.90;102031.91;4978265;28;20450;-75
2023/08/10 08:23:28;;;;;;;7.75;1.83;;;;;;;19.45;62.82;102031.69;4970239;28;20261;-75
2023/08/10 08:25:55;;;;;;;9.70;2.22;;;;;;;19.50;61.00;102030.50;4970000;28;20057;-75
2023/08/10 08:28:23;;;;;;;8.60;2.08;;;;;;;19.52;61.44;102031.31;4951658;28;20053;-75
2023/08/10 08:30:50;;;;;;;6.00;2.10;;;;;;;19.59;61.04;102036.34;4981582;28;20108;-75
2023/08/10 08:33:19;;;;;;;6.60;2.03;;;;;;;19.63;61.45;102036.16;4989265;28;20042;-75
2023/08/10 08:35:47;;;;;;;4.55;2.08;;;;;;;19.70;59.15;102039.34;4988983;28;20570;-75
2023/08/10 08:38:15;;;;;;;5.30;2.10;;;;;;;19.75;59.29;102039.13;4990000;28;20057;-74
2023/08/10 08:40:43;;;;;;;4.38;2.10;;;;;;;19.76;58.94;102036.38;4989379;28;20577;-75
2023/08/10 08:43:11;;;;;;;6.10;1.80;;;;;;;19.84;60.60;102039.53;4987369;28;20053;-75
2023/08/10 08:45:40;;;;;;;2.03;1.30;;;;;;;19.96;60.98;102037.22;4988015;28;20659;-75
2023/08/10 08:48:07;;;;;;;4.38;1.80;;;;;;;20.07;61.11;102033.97;4987041;28;20414;-75
2023/08/10 08:50:36;;;;;;;4.03;2.03;;;;;;;20.17;61.38;102035.22;4988972;28;20096;-75
2023/08/10 08:53:06;;;;;;;3.65;1.42;;;;;;;20.25;58.60;102026.81;4988157;28;20082;-75
2023/08/10 08:55:34;;;;;;;6.30;1.70;;;;;;;20.31;59.76;102029.16;4987807;28;20046;-74
2023/08/10 08:58:01;;;;;;;7.57;1.83;;;;;;;20.39;60.40;102040.34;4986338;28;20077;-75
2023/08/10 09:00:31;;;;;;;5.18;1.40;;;;;;;20.45;58.94;102026.59;4988772;28;20510;-75
2023/08/10 09:03:00;;;;;;;2.72;1.40;;;;;;;20.51;59.15;102024.53;4987303;28;20650;-75
2023/08/10 09:05:29;;;;;;;2.83;1.50;;;;;;;20.56;58.41;102022.50;4987871;28;20422;-75
2023/08/10 09:07:58;;;;;;;5.03;1.60;;;;;;;20.59;57.77;102017.81;4988453;28;20064;-75
2023/08/10 09:10:25;;;;;;;4.43;1.70;;;;;;;20.67;58.06;102028.13;4989323;28;20057;-76
2023/08/10 09:12:53;;;;;;;4.47;1.42;;;;;;;20.74;59.11;102021.50;4987593;28;20049;-75
2023/08/10 09:15:20;;;;;;;3.97;1.70;;;;;;;20.85;56.98;102020.06;4971215;28;20042;-75
2023/08/10 09:17:53;;;;;;;5.28;1.73;;;;;;;20.91;57.83;102020.59;4971012;28;20126;-75
2023/08/10 09:20:27;;;;;;;4.13;1.80;;;;;;;21.03;58.45;102021.72;4987835;28;20042;-75
2023/08/10 09:23:00;;;;;;;4.07;1.88;;;;;;;21.15;57.71;102020.19;4987436;28;20050;-75
2023/08/10 09:25:39;;;;;;;2.67;1.27;;;;;;;21.33;57.14;102009.34;4988946;28;20081;-74
2023/08/10 09:28:12;;;;;;;4.30;1.55;;;;;;;21.53;56.61;102009.06;4970867;28;20050;-75
2023/08/10 09:30:41;;;;;;;3.67;1.48;;;;;;;21.75;57.72;102005.13;4970844;28;20130;-76
2023/08/10 09:33:08;;;;;;;2.78;1.48;;;;;;;21.98;57.39;102005.56;4988513;28;20070;-75
2023/08/10 09:35:37;;;;;;;5.72;1.80;;;;;;;22.12;54.80;102010.97;4971691;28;20066;-76
2023/08/10 09:38:04;;;;;;;2.75;1.52;;;;;;;22.11;52.91;102008.38;4987595;28;20046;-76
2023/08/10 09:40:31;;;;;;;3.80;1.73;;;;;;;22.04;54.89;102010.56;4972874;28;20046;-75
2023/08/10 09:42:58;;;;;;;3.78;2.10;;;;;;;22.06;54.96;102013.16;4973994;28;20054;-76
2023/08/10 09:45:25;;;;;;;5.25;2.10;;;;;;;22.13;53.77;102012.69;4990248;28;20035;-76
2023/08/10 09:47:53;;;;;;;2.60;1.75;;;;;;;22.21;54.26;102012.25;4991712;28;20074;-76
2023/08/10 09:50:20;;;;;;;2.95;1.58;;;;;;;22.32;53.98;102015.13;4975254;28;20077;-76
2023/08/10 09:52:49;;;;;;;5.63;1.92;;;;;;;22.36;52.70;102005.06;4973941;28;20046;-76
2023/08/10 09:55:16;;;;;;;2.75;1.60;;;;;;;22.39;53.66;102009.38;4974985;28;20129;-76
2023/08/10 09:57:44;;;;;;;2.72;1.60;;;;;;;22.45;52.22;102003.63;4990844;28;20049;-75
2023/08/10 10:00:18;;;;;;;3.70;1.40;;;;;;;22.46;53.38;102005.34;4991897;28;20042;-75
2023/08/10 10:02:47;;;;;;;;;;;;;;;22.53;53.46;102005.84;4986713;28;20045;-75
2023/08/10 10:05:19;;;;;;;4.55;1.88;;;;;;;22.58;54.03;102004.59;4990734;28;19928;-75
2023/08/10 10:08:06;;;;;;;2.97;1.70;;;;;;;22.73;54.06;102009.97;4991257;28;20553;-74
2023/08/10 10:10:36;;;;;;;5.28;1.80;;;;;;;22.77;52.48;102009.69;4992158;28;20647;-75
2023/08/10 10:13:10;;;;;;;4.70;1.63;;;;;;;22.83;52.69;102005.75;4991270;28;20117;-75
2023/08/10 10:15:42;;;;;;;5.15;1.77;;;;;;;22.89;52.09;102001.78;4974421;28;20410;-76
2023/08/10 10:18:11;;;;;;;4.65;1.63;;;;;;;22.93;53.15;101989.84;4974368;28;20046;-75
2023/08/10 10:20:43;;;;;;;3.65;1.92;;;;;;;23.01;51.69;101995.59;4991996;28;20167;-76
2023/08/10 10:23:19;;;;;;;8.05;2.30;;;;;;;23.05;51.08;101994.44;4973157;28;20484;-76
2023/08/10 10:26:00;;;;;;;4.05;2.13;;;;;;;23.07;50.00;101987.16;4991926;28;20053;-76
2023/08/10 10:28:31;;;;;;;5.93;2.38;;;;;;;23.14;49.33;101995.69;4990937;28;20050;-76
2023/08/10 10:31:04;;;;;;;4.75;2.25;;;;;;;23.29;49.98;102001.03;4990170;28;20069;-77
2023/08/10 10:33:33;;;;;;;5.10;2.33;;;;;;;23.52;47.96;101999.47;4990431;28;20042;-76
2023/08/10 10:36:13;;;;;;;5.43;2.20;;;;;;;23.72;48.32;102000.84;4974222;28;20077;-76
2023/08/10 10:38:47;;;;;;;3.42;2.25;;;;;;;23.91;48.60;102000.44;4973191;28;20069;-77
2023/08/10 10:41:27;;;;;;;3.92;2.30;;;;;;;23.97;48.41;102004.56;4992174;28;20050;-77
2023/08/10 10:43:55;;;;;;;9.45;2.33;;;;;;;24.16;48.54;102012.22;4991144;28;20046;-77
2023/08/10 10:46:31;;;;;;;5.32;1.80;;;;;;;24.33;49.76;102008.34;4991374;28;20096;-77
2023/08/10 10:49:07;;;;;;;3.83;2.13;;;;;;;24.49;48.86;102025.16;4991405;28;20050;-76
2023/08/10 10:52:04;;;;;;;4.13;2.03;;;;;;;24.52;47.22;102021.38;4991630;28;20049;-76
2023/08/10 10:54:35;;;;;;;4.63;1.83;;;;;;;24.42;47.54;102010.41;4962197;28;20062;-77
2023/08/10 10:57:03;;;;;;;3.30;1.88;;;;;;;24.26;46.97;101999.84;4988277;28;20042;-77
2023/08/10 10:59:30;;;;;;;4.88;2.13;;;;;;;24.07;46.65;101999.41;4989978;28;20046;-76
2023/08/10 11:01:58;;;;;;;3.88;2.25;;;;;;;23.91;47.36;102003.13;4990373;28;20590;-77
2023/08/10 11:04:25;;;;;;;4.07;2.13;;;;;;;23.75;48.22;102000.63;4987794;28;20077;-77
2023/08/10 11:06:59;;;;;;;3.42;2.30;;;;;;;23.65;47.99;101999.53;4990544;28;20567;-76
2023/08/10 11:09:26;;;;;;;;;;;;;;;23.52;48.59;101997.69;4974244;28;20042;-77
2023/08/10 11:11:54;;;;;;;4.20;2.55;;;;;;;23.50;48.05;101993.38;4989116;28;19925;-77
2023/08/10 11:14:26;;;;;;;5.05;2.38;;;;;;;23.45;47.80;101996.38;4990067;28;20101;-77
2023/08/10 11:16:54;;;;;;;5.55;2.42;;;;;;;23.44;48.24;101996.44;4990714;28;20046;-77
2023/08/10 11:19:21;;;;;;;4.72;2.17;;;;;;;23.48;48.85;102003.38;4974141;28;20108;-77
2023/08/10 11:21:51;;;;;;;3.78;2.10;;;;;;;23.52;48.59;101994.97;4990206;28;20069;-77
2023/08/10 11:24:19;;;;;;;3.90;1.88;;;;;;;23.61;48.67;102001.56;4989614;28;20149;-76
2023/08/10 11:26:50;;;;;;;4.72;2.25;;;;;;;23.70;48.90;102008.16;4973516;28;20088;-77
2023/08/10 11:29:20;;;;;;;6.00;2.05;;;;;;;23.75;48.07;102010.53;4971048;28;20038;-77
2023/08/10 11:31:48;;;;;;;3.55;2.25;;;;;;;23.84;48.67;102009.91;4954136;28;20077;-76
2023/08/10 11:34:24;;;;;;;3.67;1.90;;;;;;;23.96;48.62;101998.31;4972628;28;20070;-77